createdAt,value
2017-02-26T00:00:34.885Z,0
2017-02-26T00:01:15.547Z,0
2017-02-26T00:01:56.196Z,0
2017-02-26T00:02:36.929Z,0
2017-02-26T00:03:18.651Z,0
2017-02-26T00:03:59.292Z,0
2017-02-26T00:04:39.933Z,0
2017-02-26T00:05:20.689Z,0
2017-02-26T00:06:01.357Z,0
2017-02-26T00:06:41.997Z,0
2017-02-26T00:07:22.654Z,0
2017-02-26T00:08:03.310Z,0
2017-02-26T00:08:44.003Z,0
2017-02-26T00:09:24.646Z,0
2017-02-26T00:10:05.260Z,0
2017-02-26T00:10:45.931Z,0
2017-02-26T00:11:26.618Z,0
2017-02-26T00:12:07.220Z,0
2017-02-26T00:12:47.880Z,0
2017-02-26T00:13:28.509Z,0
2017-02-26T00:14:09.192Z,0
2017-02-26T00:14:49.827Z,0
2017-02-26T00:15:30.529Z,0
2017-02-26T00:16:11.099Z,0
2017-02-26T00:16:51.691Z,0
2017-02-26T00:17:32.363Z,0
2017-02-26T00:18:13.031Z,0
2017-02-26T00:18:53.612Z,0
2017-02-26T00:19:34.305Z,0
2017-02-26T00:20:14.943Z,0
2017-02-26T00:20:55.613Z,0
2017-02-26T00:21:38.220Z,0
2017-02-26T00:22:18.850Z,0
2017-02-26T00:22:59.524Z,0
2017-02-26T00:23:40.212Z,0
2017-02-26T00:24:20.850Z,0
2017-02-26T00:25:01.474Z,0
2017-02-26T00:25:42.135Z,0
2017-02-26T00:26:22.788Z,0
2017-02-26T00:27:03.441Z,0
2017-02-26T00:27:44.101Z,0
2017-02-26T00:28:24.735Z,0
2017-02-26T00:29:05.355Z,0
2017-02-26T00:29:45.942Z,0
2017-02-26T00:30:26.628Z,0
2017-02-26T00:31:07.232Z,0
2017-02-26T00:31:47.919Z,0
2017-02-26T00:32:28.542Z,0
2017-02-26T00:33:09.235Z,0
2017-02-26T00:33:49.828Z,0
2017-02-26T00:34:30.568Z,0
2017-02-26T00:35:11.161Z,0
2017-02-26T00:35:51.869Z,0
2017-02-26T00:36:33.521Z,0
2017-02-26T00:37:14.113Z,0
2017-02-26T00:37:54.806Z,0
2017-02-26T00:38:35.459Z,0
2017-02-26T00:39:16.077Z,0
2017-02-26T00:39:56.759Z,0
2017-02-26T00:40:37.417Z,0
2017-02-26T00:41:18.095Z,0
2017-02-26T00:41:58.734Z,0
2017-02-26T00:42:39.443Z,0
2017-02-26T00:43:20.084Z,0
2017-02-26T00:44:00.677Z,0
2017-02-26T00:44:41.364Z,0
2017-02-26T00:45:22.013Z,0
2017-02-26T00:46:02.642Z,0
2017-02-26T00:46:43.298Z,0
2017-02-26T00:47:23.987Z,0
2017-02-26T00:48:04.605Z,0
2017-02-26T00:48:45.257Z,0
2017-02-26T00:49:25.957Z,0
2017-02-26T00:50:06.558Z,0
2017-02-26T00:50:47.132Z,0
2017-02-26T00:51:27.767Z,0
2017-02-26T00:52:08.400Z,0
2017-02-26T00:52:49.015Z,0
2017-02-26T00:53:29.617Z,0
2017-02-26T00:54:10.318Z,0
2017-02-26T00:54:51.020Z,0
2017-02-26T00:55:32.715Z,0
2017-02-26T00:56:14.350Z,0
2017-02-26T00:56:55.034Z,0
2017-02-26T00:57:35.683Z,0
2017-02-26T00:58:16.368Z,0
2017-02-26T00:58:56.984Z,0
2017-02-26T00:59:37.638Z,0
2017-02-26T01:00:18.219Z,0
2017-02-26T01:00:58.843Z,0
2017-02-26T01:01:39.516Z,0
2017-02-26T01:02:20.153Z,0
2017-02-26T01:03:00.790Z,0
2017-02-26T01:03:41.539Z,0
2017-02-26T01:04:22.078Z,0
2017-02-26T01:05:02.655Z,0
2017-02-26T01:05:43.340Z,0
2017-02-26T01:06:24.018Z,0
2017-02-26T01:07:04.652Z,0
2017-02-26T01:07:45.272Z,0
2017-02-26T01:08:25.932Z,0
2017-02-26T01:09:06.571Z,0
2017-02-26T01:09:47.175Z,0
2017-02-26T01:10:27.779Z,0
2017-02-26T01:11:08.434Z,0
2017-02-26T01:11:49.013Z,0
2017-02-26T01:12:29.628Z,0
2017-02-26T01:13:10.277Z,0
2017-02-26T01:13:50.870Z,0
2017-02-26T01:14:31.510Z,0
2017-02-26T01:15:12.173Z,0
2017-02-26T01:15:52.786Z,0
2017-02-26T01:16:33.445Z,0
2017-02-26T01:17:14.111Z,0
2017-02-26T01:17:54.752Z,0
2017-02-26T01:18:35.415Z,0
2017-02-26T01:19:16.051Z,0
2017-02-26T01:19:56.711Z,0
2017-02-26T01:20:37.359Z,0
2017-02-26T01:21:18.016Z,0
2017-02-26T01:22:00.910Z,0
2017-02-26T01:22:41.629Z,0
2017-02-26T01:23:22.330Z,0
2017-02-26T01:24:03.277Z,0
2017-02-26T01:24:43.879Z,0
2017-02-26T01:25:24.474Z,0
2017-02-26T01:26:05.179Z,0
2017-02-26T01:26:45.806Z,0
2017-02-26T01:27:26.490Z,0
2017-02-26T01:28:07.058Z,0
2017-02-26T01:28:47.659Z,0
2017-02-26T01:29:28.315Z,0
2017-02-26T01:30:09.303Z,0
2017-02-26T01:30:49.861Z,0
2017-02-26T01:31:30.468Z,0
2017-02-26T01:32:11.120Z,0
2017-02-26T01:32:51.815Z,0
2017-02-26T01:33:32.425Z,0
2017-02-26T01:34:14.001Z,0
2017-02-26T01:34:54.659Z,0
2017-02-26T01:35:35.313Z,0
2017-02-26T01:36:15.964Z,0
2017-02-26T01:36:56.633Z,0
2017-02-26T01:37:37.274Z,0
2017-02-26T01:38:17.918Z,0
2017-02-26T01:38:58.593Z,0
2017-02-26T01:39:39.228Z,0
2017-02-26T01:40:19.901Z,0
2017-02-26T01:41:00.528Z,0
2017-02-26T01:41:41.194Z,0
2017-02-26T01:42:21.838Z,0
2017-02-26T01:43:03.522Z,0
2017-02-26T01:43:44.167Z,0
2017-02-26T01:44:24.749Z,0
2017-02-26T01:45:05.379Z,0
2017-02-26T01:45:46.033Z,0
2017-02-26T01:46:26.623Z,0
2017-02-26T01:47:07.231Z,0
2017-02-26T01:47:47.880Z,0
2017-02-26T01:48:28.458Z,0
2017-02-26T01:49:09.081Z,0
2017-02-26T01:49:49.744Z,0
2017-02-26T01:50:30.329Z,0
2017-02-26T01:51:10.899Z,0
2017-02-26T01:51:53.592Z,0
2017-02-26T01:52:34.222Z,0
2017-02-26T01:53:14.885Z,0
2017-02-26T01:53:55.486Z,0
2017-02-26T01:54:36.165Z,0
2017-02-26T01:55:16.810Z,0
2017-02-26T01:55:57.403Z,0
2017-02-26T01:56:37.990Z,0
2017-02-26T01:57:19.615Z,0
2017-02-26T01:58:00.241Z,0
2017-02-26T01:58:40.926Z,0
2017-02-26T01:59:21.477Z,0
2017-02-26T02:00:03.119Z,0
2017-02-26T02:00:43.775Z,0
2017-02-26T02:01:24.466Z,0
2017-02-26T02:02:05.018Z,0
2017-02-26T02:02:45.626Z,0
2017-02-26T02:03:26.276Z,0
2017-02-26T02:04:06.970Z,0
2017-02-26T02:04:47.620Z,0
2017-02-26T02:05:28.281Z,0
2017-02-26T02:06:08.928Z,0
2017-02-26T02:06:49.580Z,0
2017-02-26T02:07:30.237Z,0
2017-02-26T02:08:10.892Z,0
2017-02-26T02:08:51.543Z,0
2017-02-26T02:09:32.210Z,0
2017-02-26T02:10:12.816Z,0
2017-02-26T02:10:53.473Z,0
2017-02-26T02:11:34.113Z,0
2017-02-26T02:12:14.756Z,0
2017-02-26T02:12:55.452Z,0
2017-02-26T02:13:36.096Z,0
2017-02-26T02:14:16.723Z,0
2017-02-26T02:14:57.317Z,0
2017-02-26T02:15:37.877Z,0
2017-02-26T02:16:19.580Z,0
2017-02-26T02:17:00.158Z,0
2017-02-26T02:17:40.742Z,0
2017-02-26T02:18:21.765Z,0
2017-02-26T02:19:02.428Z,0
2017-02-26T02:19:43.072Z,0
2017-02-26T02:20:23.723Z,0
2017-02-26T02:21:04.377Z,0
2017-02-26T02:21:45.034Z,0
2017-02-26T02:22:25.788Z,0
2017-02-26T02:23:06.456Z,0
2017-02-26T02:23:47.096Z,0
2017-02-26T02:24:27.776Z,0
2017-02-26T02:25:08.420Z,0
2017-02-26T02:25:49.049Z,0
2017-02-26T02:26:29.722Z,0
2017-02-26T02:27:10.365Z,0
2017-02-26T02:27:51.019Z,0
2017-02-26T02:28:31.661Z,0
2017-02-26T02:29:12.338Z,0
2017-02-26T02:29:52.964Z,0
2017-02-26T02:30:33.647Z,0
2017-02-26T02:31:14.276Z,0
2017-02-26T02:31:54.936Z,0
2017-02-26T02:32:35.578Z,0
2017-02-26T02:33:16.275Z,0
2017-02-26T02:33:56.903Z,0
2017-02-26T02:34:37.585Z,0
2017-02-26T02:35:18.193Z,0
2017-02-26T02:35:58.870Z,0
2017-02-26T02:36:39.508Z,0
2017-02-26T02:37:20.150Z,0
2017-02-26T02:38:00.823Z,0
2017-02-26T02:38:41.455Z,0
2017-02-26T02:39:22.116Z,0
2017-02-26T02:40:02.766Z,0
2017-02-26T02:40:43.420Z,0
2017-02-26T02:41:24.072Z,0
2017-02-26T02:42:05.752Z,0
2017-02-26T02:42:46.402Z,0
2017-02-26T02:43:27.073Z,0
2017-02-26T02:44:07.725Z,0
2017-02-26T02:44:48.365Z,0
2017-02-26T02:45:29.013Z,0
2017-02-26T02:46:09.747Z,0
2017-02-26T02:46:50.439Z,0
2017-02-26T02:47:31.084Z,0
2017-02-26T02:48:11.731Z,0
2017-02-26T02:48:52.378Z,0
2017-02-26T02:49:33.046Z,0
2017-02-26T02:50:14.096Z,0
2017-02-26T02:50:54.756Z,0
2017-02-26T02:51:35.394Z,0
2017-02-26T02:52:16.057Z,0
2017-02-26T02:52:56.706Z,0
2017-02-26T02:53:37.373Z,0
2017-02-26T02:54:19.610Z,0
2017-02-26T02:55:00.214Z,0
2017-02-26T02:55:40.870Z,0
2017-02-26T02:56:22.570Z,0
2017-02-26T02:57:03.220Z,0
2017-02-26T02:57:43.884Z,0
2017-02-26T02:58:24.528Z,0
2017-02-26T02:59:05.147Z,0
2017-02-26T02:59:45.824Z,0
2017-02-26T03:00:26.507Z,0
2017-02-26T03:01:07.106Z,0
2017-02-26T03:01:47.769Z,0
2017-02-26T03:02:28.415Z,0
2017-02-26T03:03:09.089Z,0
2017-02-26T03:03:49.729Z,0
2017-02-26T03:04:30.379Z,0
2017-02-26T03:05:11.064Z,0
2017-02-26T03:05:51.682Z,0
2017-02-26T03:06:32.323Z,0
2017-02-26T03:07:12.996Z,0
2017-02-26T03:07:53.652Z,0
2017-02-26T03:08:34.293Z,0
2017-02-26T03:09:14.951Z,0
2017-02-26T03:09:55.604Z,0
2017-02-26T03:10:36.253Z,0
2017-02-26T03:11:16.899Z,0
2017-02-26T03:11:57.613Z,0
2017-02-26T03:12:38.200Z,0
2017-02-26T03:13:18.868Z,0
2017-02-26T03:13:59.512Z,0
2017-02-26T03:14:40.116Z,0
2017-02-26T03:15:20.693Z,0
2017-02-26T03:16:01.359Z,0
2017-02-26T03:16:42.033Z,0
2017-02-26T03:17:22.711Z,0
2017-02-26T03:18:03.266Z,0
2017-02-26T03:18:43.891Z,0
2017-02-26T03:19:24.521Z,0
2017-02-26T03:20:05.121Z,0
2017-02-26T03:20:45.705Z,0
2017-02-26T03:21:26.401Z,0
2017-02-26T03:22:07.036Z,0
2017-02-26T03:22:47.650Z,0
2017-02-26T03:23:28.230Z,0
2017-02-26T03:24:08.928Z,0
2017-02-26T03:24:49.610Z,0
2017-02-26T03:25:30.275Z,0
2017-02-26T03:26:10.855Z,0
2017-02-26T03:26:51.514Z,0
2017-02-26T03:27:32.186Z,0
2017-02-26T03:28:12.857Z,0
2017-02-26T03:28:53.470Z,0
2017-02-26T03:29:34.117Z,0
2017-02-26T03:30:14.768Z,0
2017-02-26T03:30:55.421Z,0
2017-02-26T03:31:36.095Z,0
2017-02-26T03:32:16.743Z,0
2017-02-26T03:32:57.391Z,0
2017-02-26T03:33:39.066Z,0
2017-02-26T03:34:19.716Z,0
2017-02-26T03:35:00.402Z,0
2017-02-26T03:35:40.975Z,0
2017-02-26T03:36:21.663Z,0
2017-02-26T03:37:02.341Z,0
2017-02-26T03:37:43.015Z,0
2017-02-26T03:38:23.602Z,0
2017-02-26T03:39:04.279Z,0
2017-02-26T03:39:44.930Z,0
2017-02-26T03:40:25.514Z,0
2017-02-26T03:41:06.158Z,0
2017-02-26T03:41:46.796Z,0
2017-02-26T03:42:27.780Z,0
2017-02-26T03:43:08.410Z,0
2017-02-26T03:43:49.061Z,0
2017-02-26T03:44:29.629Z,0
2017-02-26T03:45:10.263Z,0
2017-02-26T03:45:50.918Z,0
2017-02-26T03:46:31.472Z,0
2017-02-26T03:47:12.123Z,0
2017-02-26T03:47:52.771Z,0
2017-02-26T03:48:33.377Z,0
2017-02-26T03:49:14.075Z,0
2017-02-26T03:49:55.751Z,0
2017-02-26T03:50:36.345Z,0
2017-02-26T03:51:16.974Z,0
2017-02-26T03:51:57.610Z,0
2017-02-26T03:52:38.199Z,0
2017-02-26T03:53:18.917Z,0
2017-02-26T03:53:59.577Z,0
2017-02-26T03:54:40.128Z,0
2017-02-26T03:55:20.787Z,0
2017-02-26T03:56:01.436Z,0
2017-02-26T03:56:42.119Z,0
2017-02-26T03:57:22.734Z,0
2017-02-26T03:58:03.402Z,0
2017-02-26T03:58:44.035Z,0
2017-02-26T03:59:24.702Z,0
2017-02-26T04:00:05.342Z,0
2017-02-26T04:00:47.031Z,0
2017-02-26T04:01:27.670Z,0
2017-02-26T04:02:08.325Z,0
2017-02-26T04:02:48.973Z,0
2017-02-26T04:03:29.568Z,0
2017-02-26T04:04:10.195Z,0
2017-02-26T04:04:50.836Z,0
2017-02-26T04:05:31.492Z,0
2017-02-26T04:06:12.177Z,0
2017-02-26T04:06:52.785Z,0
2017-02-26T04:07:33.453Z,0
2017-02-26T04:08:14.143Z,0
2017-02-26T04:08:54.806Z,0
2017-02-26T04:09:35.421Z,0
2017-02-26T04:10:16.066Z,0
2017-02-26T04:10:56.758Z,0
2017-02-26T04:11:37.325Z,0
2017-02-26T04:12:17.917Z,0
2017-02-26T04:12:58.560Z,0
2017-02-26T04:13:39.163Z,0
2017-02-26T04:14:19.744Z,0
2017-02-26T04:15:00.426Z,0
2017-02-26T04:15:41.088Z,0
2017-02-26T04:16:21.725Z,0
2017-02-26T04:17:02.382Z,0
2017-02-26T04:17:43.035Z,0
2017-02-26T04:18:23.692Z,0
2017-02-26T04:19:04.338Z,0
2017-02-26T04:19:44.988Z,0
2017-02-26T04:20:25.654Z,0
2017-02-26T04:21:06.321Z,0
2017-02-26T04:21:46.958Z,0
2017-02-26T04:22:27.602Z,0
2017-02-26T04:23:08.272Z,0
2017-02-26T04:23:48.906Z,0
2017-02-26T04:24:29.562Z,0
2017-02-26T04:25:10.233Z,0
2017-02-26T04:25:50.879Z,0
2017-02-26T04:26:31.544Z,0
2017-02-26T04:27:13.231Z,0
2017-02-26T04:27:54.898Z,0
2017-02-26T04:28:35.964Z,0
2017-02-26T04:29:17.000Z,0
2017-02-26T04:29:57.660Z,0
2017-02-26T04:30:38.306Z,0
2017-02-26T04:31:18.960Z,0
2017-02-26T04:31:59.621Z,0
2017-02-26T04:32:40.268Z,0
2017-02-26T04:33:20.943Z,0
2017-02-26T04:34:01.573Z,0
2017-02-26T04:34:42.247Z,0
2017-02-26T04:35:22.929Z,0
2017-02-26T04:36:03.589Z,0
2017-02-26T04:36:44.143Z,0
2017-02-26T04:37:24.731Z,0
2017-02-26T04:38:05.384Z,0
2017-02-26T04:38:46.382Z,0
2017-02-26T04:39:28.028Z,0
2017-02-26T04:40:08.681Z,0
2017-02-26T04:40:49.349Z,0
2017-02-26T04:41:31.004Z,0
2017-02-26T04:42:11.684Z,0
2017-02-26T04:42:52.309Z,0
2017-02-26T04:43:32.963Z,0
2017-02-26T04:44:13.637Z,0
2017-02-26T04:44:55.302Z,0
2017-02-26T04:45:35.956Z,0
2017-02-26T04:46:16.547Z,0
2017-02-26T04:46:57.113Z,0
2017-02-26T04:47:37.710Z,0
2017-02-26T04:48:18.356Z,0
2017-02-26T04:48:58.962Z,0
2017-02-26T04:49:39.536Z,0
2017-02-26T04:50:21.130Z,0
2017-02-26T04:51:01.807Z,0
2017-02-26T04:51:42.447Z,0
2017-02-26T04:52:23.097Z,0
2017-02-26T04:53:05.175Z,0
2017-02-26T04:53:45.828Z,0
2017-02-26T04:54:26.481Z,0
2017-02-26T04:55:07.135Z,0
2017-02-26T04:55:47.798Z,0
2017-02-26T04:56:28.850Z,0
2017-02-26T04:57:09.498Z,0
2017-02-26T04:57:50.182Z,0
2017-02-26T04:58:30.779Z,0
2017-02-26T04:59:11.360Z,0
2017-02-26T04:59:52.025Z,0
2017-02-26T05:00:32.685Z,0
2017-02-26T05:01:13.265Z,0
2017-02-26T05:01:53.837Z,0
2017-02-26T05:02:34.413Z,0
2017-02-26T05:03:15.085Z,0
2017-02-26T05:03:55.774Z,0
2017-02-26T05:04:36.336Z,0
2017-02-26T05:05:16.922Z,0
2017-02-26T05:05:57.606Z,0
2017-02-26T05:06:38.240Z,0
2017-02-26T05:07:18.911Z,0
2017-02-26T05:07:59.621Z,0
2017-02-26T05:08:40.725Z,0
2017-02-26T05:09:21.377Z,0
2017-02-26T05:10:02.023Z,0
2017-02-26T05:10:42.673Z,0
2017-02-26T05:11:23.327Z,0
2017-02-26T05:12:03.980Z,0
2017-02-26T05:12:44.634Z,0
2017-02-26T05:13:25.278Z,0
2017-02-26T05:14:05.940Z,0
2017-02-26T05:14:46.501Z,0
2017-02-26T05:15:27.144Z,0
2017-02-26T05:16:07.800Z,0
2017-02-26T05:16:48.387Z,0
2017-02-26T05:17:29.035Z,0
2017-02-26T05:18:09.643Z,0
2017-02-26T05:18:50.209Z,0
2017-02-26T05:19:31.886Z,0
2017-02-26T05:20:12.539Z,0
2017-02-26T05:20:53.175Z,0
2017-02-26T05:21:33.883Z,0
2017-02-26T05:22:14.505Z,0
2017-02-26T05:22:55.158Z,0
2017-02-26T05:23:35.804Z,0
2017-02-26T05:24:16.458Z,0
2017-02-26T05:24:57.031Z,0
2017-02-26T05:25:37.671Z,0
2017-02-26T05:26:18.302Z,0
2017-02-26T05:26:58.875Z,0
2017-02-26T05:27:39.511Z,0
2017-02-26T05:28:20.170Z,0
2017-02-26T05:29:00.736Z,0
2017-02-26T05:29:42.390Z,0
2017-02-26T05:30:23.050Z,0
2017-02-26T05:31:03.701Z,0
2017-02-26T05:31:44.358Z,0
2017-02-26T05:32:25.009Z,0
2017-02-26T05:33:05.650Z,0
2017-02-26T05:33:46.316Z,0
2017-02-26T05:34:26.962Z,0
2017-02-26T05:35:07.556Z,0
2017-02-26T05:35:48.137Z,0
2017-02-26T05:36:28.853Z,0
2017-02-26T05:37:09.469Z,0
2017-02-26T05:37:50.161Z,0
2017-02-26T05:38:30.724Z,0
2017-02-26T05:39:11.320Z,0
2017-02-26T05:39:51.987Z,0
2017-02-26T05:40:32.630Z,0
2017-02-26T05:41:13.293Z,0
2017-02-26T05:41:53.961Z,0
2017-02-26T05:42:34.607Z,0
2017-02-26T05:43:15.252Z,0
2017-02-26T05:43:56.948Z,0
2017-02-26T05:44:37.566Z,0
2017-02-26T05:45:18.275Z,0
2017-02-26T05:45:58.896Z,0
2017-02-26T05:46:39.549Z,0
2017-02-26T05:47:20.138Z,0
2017-02-26T05:48:00.832Z,0
2017-02-26T05:48:41.397Z,0
2017-02-26T05:49:23.061Z,0
2017-02-26T05:50:03.721Z,0
2017-02-26T05:50:44.369Z,0
2017-02-26T05:51:25.027Z,0
2017-02-26T05:52:05.673Z,0
2017-02-26T05:52:46.341Z,0
2017-02-26T05:53:26.988Z,0
2017-02-26T05:54:07.641Z,0
2017-02-26T05:54:48.303Z,0
2017-02-26T05:55:28.881Z,0
2017-02-26T05:56:09.500Z,0
2017-02-26T05:56:50.150Z,0
2017-02-26T05:57:30.727Z,0
2017-02-26T05:58:11.346Z,0
2017-02-26T05:58:52.019Z,0
2017-02-26T05:59:32.592Z,0
2017-02-26T06:00:13.225Z,0
2017-02-26T06:00:53.863Z,0
2017-02-26T06:01:34.562Z,0
2017-02-26T06:02:15.170Z,0
2017-02-26T06:02:55.835Z,0
2017-02-26T06:03:36.402Z,0
2017-02-26T06:04:17.023Z,0
2017-02-26T06:04:57.613Z,0
2017-02-26T06:05:38.190Z,0
2017-02-26T06:06:18.769Z,0
2017-02-26T06:06:59.441Z,0
2017-02-26T06:07:40.124Z,0
2017-02-26T06:08:20.705Z,0
2017-02-26T06:09:01.303Z,0
2017-02-26T06:09:41.937Z,0
2017-02-26T06:10:22.594Z,0
2017-02-26T06:11:03.274Z,0
2017-02-26T06:11:43.939Z,0
2017-02-26T06:12:24.600Z,0
2017-02-26T06:13:05.244Z,0
2017-02-26T06:13:45.897Z,0
2017-02-26T06:14:26.551Z,0
2017-02-26T06:15:07.163Z,0
2017-02-26T06:15:47.816Z,0
2017-02-26T06:16:28.475Z,0
2017-02-26T06:17:09.177Z,0
2017-02-26T06:17:49.759Z,0
2017-02-26T06:18:31.348Z,0
2017-02-26T06:19:12.004Z,0
2017-02-26T06:19:52.570Z,0
2017-02-26T06:20:33.231Z,0
2017-02-26T06:21:13.878Z,0
2017-02-26T06:21:54.450Z,0
2017-02-26T06:22:35.065Z,0
2017-02-26T06:23:15.716Z,5
2017-02-26T06:23:56.288Z,5
2017-02-26T06:24:36.916Z,5
2017-02-26T06:25:17.575Z,5
2017-02-26T06:25:58.232Z,5
2017-02-26T06:26:39.296Z,5
2017-02-26T06:27:19.955Z,5
2017-02-26T06:28:00.614Z,5
2017-02-26T06:28:41.258Z,5
2017-02-26T06:29:21.908Z,5
2017-02-26T06:30:03.616Z,5
2017-02-26T06:30:44.252Z,5
2017-02-26T06:31:24.883Z,5
2017-02-26T06:32:05.551Z,5
2017-02-26T06:32:46.197Z,5
2017-02-26T06:33:26.772Z,5
2017-02-26T06:34:07.388Z,5
2017-02-26T06:34:48.091Z,5
2017-02-26T06:35:28.709Z,5
2017-02-26T06:36:09.402Z,5
2017-02-26T06:36:50.019Z,10
2017-02-26T06:37:30.679Z,10
2017-02-26T06:38:11.308Z,10
2017-02-26T06:38:51.902Z,10
2017-02-26T06:39:32.492Z,10
2017-02-26T06:40:13.175Z,10
2017-02-26T06:40:53.826Z,10
2017-02-26T06:41:34.390Z,10
2017-02-26T06:42:15.030Z,10
2017-02-26T06:42:55.681Z,10
2017-02-26T06:43:36.284Z,10
2017-02-26T06:44:16.878Z,10
2017-02-26T06:44:57.531Z,10
2017-02-26T06:45:38.193Z,10
2017-02-26T06:46:18.857Z,15
2017-02-26T06:46:59.497Z,15
2017-02-26T06:47:40.061Z,15
2017-02-26T06:48:21.726Z,15
2017-02-26T06:49:02.378Z,15
2017-02-26T06:49:43.048Z,15
2017-02-26T06:50:23.715Z,15
2017-02-26T06:51:04.282Z,15
2017-02-26T06:51:44.905Z,20
2017-02-26T06:52:25.552Z,20
2017-02-26T06:53:06.226Z,20
2017-02-26T06:53:46.810Z,20
2017-02-26T06:54:28.413Z,20
2017-02-26T06:55:11.041Z,20
2017-02-26T06:55:51.707Z,20
2017-02-26T06:56:32.275Z,20
2017-02-26T06:57:12.888Z,20
2017-02-26T06:57:53.518Z,20
2017-02-26T06:58:34.110Z,20
2017-02-26T06:59:14.710Z,20
2017-02-26T06:59:55.382Z,20
2017-02-26T07:00:36.039Z,25
2017-02-26T07:01:16.620Z,25
2017-02-26T07:01:57.185Z,25
2017-02-26T07:02:37.781Z,30
2017-02-26T07:03:18.434Z,30
2017-02-26T07:03:59.029Z,35
2017-02-26T07:04:39.632Z,35
2017-02-26T07:05:20.316Z,35
2017-02-26T07:06:00.938Z,35
2017-02-26T07:06:41.646Z,35
2017-02-26T07:07:22.246Z,35
2017-02-26T07:08:02.900Z,40
2017-02-26T07:08:44.507Z,40
2017-02-26T07:09:25.139Z,40
2017-02-26T07:10:05.825Z,40
2017-02-26T07:10:46.471Z,40
2017-02-26T07:11:27.109Z,40
2017-02-26T07:12:07.747Z,40
2017-02-26T07:12:48.392Z,40
2017-02-26T07:13:29.054Z,40
2017-02-26T07:14:09.714Z,40
2017-02-26T07:14:50.372Z,35
2017-02-26T07:15:31.038Z,35
2017-02-26T07:16:11.663Z,35
2017-02-26T07:16:53.365Z,35
2017-02-26T07:17:33.996Z,30
2017-02-26T07:18:16.591Z,30
2017-02-26T07:18:57.251Z,30
2017-02-26T07:19:37.896Z,30
2017-02-26T07:20:18.597Z,30
2017-02-26T07:20:59.190Z,30
2017-02-26T07:21:39.877Z,30
2017-02-26T07:22:20.522Z,30
2017-02-26T07:23:01.219Z,30
2017-02-26T07:23:41.781Z,30
2017-02-26T07:24:22.368Z,30
2017-02-26T07:25:03.056Z,25
2017-02-26T07:25:43.723Z,20
2017-02-26T07:26:24.337Z,20
2017-02-26T07:27:04.997Z,20
2017-02-26T07:27:45.649Z,20
2017-02-26T07:28:26.334Z,20
2017-02-26T07:29:06.903Z,25
2017-02-26T07:29:47.535Z,25
2017-02-26T07:30:29.192Z,20
2017-02-26T07:31:09.838Z,20
2017-02-26T07:31:50.448Z,20
2017-02-26T07:32:31.125Z,20
2017-02-26T07:33:12.810Z,20
2017-02-26T07:33:53.468Z,20
2017-02-26T07:34:34.133Z,15
2017-02-26T07:35:14.761Z,20
2017-02-26T07:35:55.431Z,20
2017-02-26T07:36:36.076Z,20
2017-02-26T07:37:16.933Z,20
2017-02-26T07:37:57.584Z,20
2017-02-26T07:38:38.231Z,20
2017-02-26T07:39:18.895Z,20
2017-02-26T07:39:59.557Z,20
2017-02-26T07:40:40.202Z,25
2017-02-26T07:41:20.856Z,25
2017-02-26T07:42:01.497Z,25
2017-02-26T07:42:42.158Z,25
2017-02-26T07:43:22.813Z,30
2017-02-26T07:44:03.460Z,30
2017-02-26T07:44:44.104Z,35
2017-02-26T07:45:24.695Z,40
2017-02-26T07:46:05.280Z,50
2017-02-26T07:46:45.878Z,55
2017-02-26T07:47:26.532Z,55
2017-02-26T07:48:07.225Z,60
2017-02-26T07:48:47.787Z,55
2017-02-26T07:49:28.481Z,50
2017-02-26T07:50:09.142Z,50
2017-02-26T07:50:49.845Z,50
2017-02-26T07:51:30.398Z,50
2017-02-26T07:52:11.008Z,55
2017-02-26T07:52:51.957Z,55
2017-02-26T07:53:32.657Z,55
2017-02-26T07:54:13.238Z,55
2017-02-26T07:54:54.937Z,55
2017-02-26T07:55:35.597Z,55
2017-02-26T07:56:16.187Z,50
2017-02-26T07:56:56.776Z,55
2017-02-26T07:57:37.361Z,65
2017-02-26T07:58:17.964Z,65
2017-02-26T07:58:58.570Z,60
2017-02-26T07:59:39.243Z,55
2017-02-26T08:00:19.900Z,50
2017-02-26T08:01:00.586Z,50
2017-02-26T08:01:41.241Z,45
2017-02-26T08:02:22.913Z,50
2017-02-26T08:03:03.561Z,55
2017-02-26T08:03:44.210Z,60
2017-02-26T08:04:24.799Z,60
2017-02-26T08:05:05.416Z,60
2017-02-26T08:05:46.073Z,70
2017-02-26T08:06:26.761Z,75
2017-02-26T08:07:07.335Z,70
2017-02-26T08:07:47.924Z,80
2017-02-26T08:08:28.571Z,90
2017-02-26T08:09:09.165Z,90
2017-02-26T08:09:49.728Z,85
2017-02-26T08:10:30.358Z,75
2017-02-26T08:11:11.297Z,65
2017-02-26T08:11:51.982Z,55
2017-02-26T08:12:32.541Z,55
2017-02-26T08:13:13.171Z,55
2017-02-26T08:13:53.798Z,55
2017-02-26T08:14:34.499Z,55
2017-02-26T08:15:15.074Z,55
2017-02-26T08:15:56.683Z,55
2017-02-26T08:16:38.382Z,55
2017-02-26T08:17:19.053Z,50
2017-02-26T08:17:59.654Z,50
2017-02-26T08:18:40.221Z,55
2017-02-26T08:19:20.868Z,60
2017-02-26T08:20:01.455Z,65
2017-02-26T08:20:42.040Z,70
2017-02-26T08:21:22.614Z,70
2017-02-26T08:22:03.279Z,70
2017-02-26T08:22:43.865Z,70
2017-02-26T08:23:24.475Z,65
2017-02-26T08:24:05.156Z,65
2017-02-26T08:24:45.792Z,65
2017-02-26T08:25:26.478Z,70
2017-02-26T08:26:07.058Z,70
2017-02-26T08:26:47.683Z,70
2017-02-26T08:27:28.330Z,65
2017-02-26T08:28:11.053Z,65
2017-02-26T08:28:51.694Z,70
2017-02-26T08:29:32.274Z,75
2017-02-26T08:30:12.891Z,80
2017-02-26T08:30:53.548Z,90
2017-02-26T08:31:34.197Z,95
2017-02-26T08:32:14.857Z,90
2017-02-26T08:32:55.540Z,80
2017-02-26T08:33:36.164Z,75
2017-02-26T08:34:16.819Z,75
2017-02-26T08:34:57.465Z,75
2017-02-26T08:35:38.082Z,85
2017-02-26T08:36:18.724Z,95
2017-02-26T08:36:59.399Z,100
2017-02-26T08:37:40.039Z,95
2017-02-26T08:38:20.636Z,95
2017-02-26T08:39:01.243Z,95
2017-02-26T08:39:41.928Z,100
2017-02-26T08:40:22.544Z,110
2017-02-26T08:41:03.196Z,125
2017-02-26T08:41:43.849Z,135
2017-02-26T08:42:24.545Z,145
2017-02-26T08:43:05.181Z,160
2017-02-26T08:43:45.816Z,170
2017-02-26T08:44:26.460Z,175
2017-02-26T08:45:07.133Z,190
2017-02-26T08:45:48.809Z,200
2017-02-26T08:46:29.439Z,210
2017-02-26T08:47:10.112Z,220
2017-02-26T08:47:50.767Z,230
2017-02-26T08:48:31.418Z,235
2017-02-26T08:49:12.075Z,235
2017-02-26T08:49:52.728Z,230
2017-02-26T08:50:33.477Z,220
2017-02-26T08:51:14.136Z,205
2017-02-26T08:51:54.813Z,190
2017-02-26T08:52:35.436Z,185
2017-02-26T08:53:16.091Z,185
2017-02-26T08:53:56.745Z,180
2017-02-26T08:54:37.395Z,160
2017-02-26T08:55:18.072Z,155
2017-02-26T08:55:58.732Z,160
2017-02-26T08:56:39.338Z,160
2017-02-26T08:57:20.013Z,165
2017-02-26T08:58:00.671Z,170
2017-02-26T08:58:41.344Z,180
2017-02-26T08:59:21.958Z,185
2017-02-26T09:00:02.626Z,185
2017-02-26T09:00:43.275Z,180
2017-02-26T09:01:23.908Z,180
2017-02-26T09:02:04.585Z,175
2017-02-26T09:02:45.245Z,165
2017-02-26T09:03:25.870Z,165
2017-02-26T09:04:07.556Z,165
2017-02-26T09:04:48.258Z,165
2017-02-26T09:05:28.965Z,165
2017-02-26T09:06:09.619Z,160
2017-02-26T09:06:50.280Z,150
2017-02-26T09:07:30.918Z,150
2017-02-26T09:08:11.585Z,145
2017-02-26T09:08:52.232Z,145
2017-02-26T09:09:32.886Z,145
2017-02-26T09:10:13.642Z,150
2017-02-26T09:10:54.321Z,155
2017-02-26T09:11:34.906Z,140
2017-02-26T09:12:15.603Z,120
2017-02-26T09:12:56.253Z,110
2017-02-26T09:13:36.934Z,100
2017-02-26T09:14:17.516Z,100
2017-02-26T09:14:58.091Z,105
2017-02-26T09:15:38.752Z,105
2017-02-26T09:16:19.448Z,105
2017-02-26T09:17:00.106Z,105
2017-02-26T09:17:40.851Z,110
2017-02-26T09:18:21.582Z,105
2017-02-26T09:19:02.244Z,105
2017-02-26T09:19:43.933Z,100
2017-02-26T09:20:24.672Z,100
2017-02-26T09:21:05.315Z,95
2017-02-26T09:21:45.974Z,90
2017-02-26T09:22:26.622Z,85
2017-02-26T09:23:07.310Z,85
2017-02-26T09:23:47.927Z,90
2017-02-26T09:24:28.586Z,95
2017-02-26T09:25:09.228Z,85
2017-02-26T09:25:49.881Z,75
2017-02-26T09:26:30.479Z,75
2017-02-26T09:27:12.130Z,75
2017-02-26T09:27:52.782Z,75
2017-02-26T09:28:33.424Z,75
2017-02-26T09:29:14.074Z,75
2017-02-26T09:29:54.725Z,75
2017-02-26T09:30:35.335Z,75
2017-02-26T09:31:15.953Z,80
2017-02-26T09:31:56.584Z,90
2017-02-26T09:32:37.164Z,85
2017-02-26T09:33:17.788Z,85
2017-02-26T09:33:58.421Z,90
2017-02-26T09:34:38.987Z,95
2017-02-26T09:35:19.667Z,100
2017-02-26T09:36:00.403Z,100
2017-02-26T09:36:40.982Z,105
2017-02-26T09:37:21.591Z,110
2017-02-26T09:38:02.379Z,110
2017-02-26T09:38:43.004Z,105
2017-02-26T09:39:23.666Z,100
2017-02-26T09:40:04.398Z,95
2017-02-26T09:40:44.979Z,90
2017-02-26T09:41:25.633Z,90
2017-02-26T09:42:06.371Z,100
2017-02-26T09:42:47.054Z,105
2017-02-26T09:43:27.646Z,110
2017-02-26T09:44:08.331Z,110
2017-02-26T09:44:49.078Z,95
2017-02-26T09:45:29.872Z,90
2017-02-26T09:46:10.575Z,95
2017-02-26T09:46:51.272Z,95
2017-02-26T09:47:32.013Z,90
2017-02-26T09:48:12.688Z,90
2017-02-26T09:48:53.304Z,100
2017-02-26T09:49:34.082Z,115
2017-02-26T09:50:14.825Z,125
2017-02-26T09:50:55.501Z,125
2017-02-26T09:51:36.125Z,125
2017-02-26T09:52:16.907Z,115
2017-02-26T09:52:57.658Z,115